createdAt,value
2023-05-14T00:01:00.515Z,96239.44
2023-05-14T00:03:26.933Z,96234.91
2023-05-14T00:05:53.345Z,96230.34
2023-05-14T00:08:19.730Z,96233.31
2023-05-14T00:10:46.207Z,96231.84
2023-05-14T00:13:12.512Z,96236.00
2023-05-14T00:15:39.602Z,96236.00
2023-05-14T00:18:07.068Z,96239.44
2023-05-14T00:20:33.541Z,96238.88
2023-05-14T00:22:59.876Z,96230.28
2023-05-14T00:25:26.234Z,96225.09
2023-05-14T00:27:52.539Z,96229.25
2023-05-14T00:30:18.864Z,96226.34
2023-05-14T00:32:45.218Z,96221.69
2023-05-14T00:35:11.608Z,96223.13
2023-05-14T00:37:38.035Z,96220.84
2023-05-14T00:40:06.901Z,96227.25
2023-05-14T00:42:33.354Z,96222.47
2023-05-14T00:44:59.859Z,96218.16
2023-05-14T00:47:26.433Z,96216.72
2023-05-14T00:49:52.936Z,96217.28
2023-05-14T00:52:19.831Z,96223.81
2023-05-14T00:54:46.964Z,96216.19
2023-05-14T00:57:13.698Z,96206.72
2023-05-14T00:59:42.468Z,96209.53
2023-05-14T01:02:09.521Z,96210.06
2023-05-14T01:04:36.034Z,96212.44
2023-05-14T01:07:10.753Z,96205.66
2023-05-14T01:09:46.247Z,96210.84
2023-05-14T01:12:31.599Z,96213.25
2023-05-14T01:15:13.565Z,96210.84
2023-05-14T01:17:46.104Z,96204.31
2023-05-14T01:20:12.632Z,96203.38
2023-05-14T01:22:39.887Z,96199.50
2023-05-14T01:25:06.551Z,96208.19
2023-05-14T01:27:56.240Z,96211.91
2023-05-14T01:30:29.444Z,96212.59
2023-05-14T01:32:57.891Z,96206.69
2023-05-14T01:35:26.955Z,96214.41
2023-05-14T01:37:57.545Z,96214.56
2023-05-14T01:40:24.454Z,96208.69
2023-05-14T01:42:53.957Z,96212.69
2023-05-14T01:45:21.277Z,96213.22
2023-05-14T01:47:51.764Z,96210.53
2023-05-14T01:50:18.252Z,96203.88
2023-05-14T01:52:44.704Z,96215.06
2023-05-14T01:55:11.151Z,96206.00
2023-05-14T01:57:37.566Z,96204.13
2023-05-14T02:00:04.456Z,96208.56
2023-05-14T02:02:30.865Z,96203.09
2023-05-14T02:04:57.209Z,96200.66
2023-05-14T02:07:23.543Z,96205.22
2023-05-14T02:09:49.880Z,96194.28
2023-05-14T02:12:16.328Z,96194.13
2023-05-14T02:14:42.711Z,96190.69
2023-05-14T02:17:09.715Z,96196.16
2023-05-14T02:19:36.146Z,96198.41
2023-05-14T02:22:02.554Z,96188.25
2023-05-14T02:24:28.918Z,96188.16
2023-05-14T02:26:55.468Z,96186.81
2023-05-14T02:29:21.919Z,96188.56
2023-05-14T02:31:48.397Z,96186.97
2023-05-14T02:34:14.840Z,96190.16
2023-05-14T02:36:41.323Z,96187.50
2023-05-14T02:39:07.705Z,96184.25
2023-05-14T02:41:34.116Z,96177.22
2023-05-14T02:44:00.528Z,96174.53
2023-05-14T02:46:27.023Z,96179.47
2023-05-14T02:48:53.540Z,96181.44
2023-05-14T02:51:20.907Z,96180.78
2023-05-14T02:53:47.278Z,96172.91
2023-05-14T02:56:13.632Z,96180.66
2023-05-14T02:58:41.174Z,96169.44
2023-05-14T03:01:07.770Z,96181.75
2023-05-14T03:03:36.256Z,96172.13
2023-05-14T03:06:03.059Z,96176.81
2023-05-14T03:08:29.346Z,96179.34
2023-05-14T03:10:55.805Z,96178.00
2023-05-14T03:13:22.107Z,96174.78
2023-05-14T03:15:48.698Z,96170.63
2023-05-14T03:18:15.176Z,96165.53
2023-05-14T03:20:41.701Z,96160.88
2023-05-14T03:23:08.207Z,96171.00
2023-05-14T03:25:34.517Z,96169.41
2023-05-14T03:28:00.944Z,96167.28
2023-05-14T03:30:27.421Z,96167.03
2023-05-14T03:32:53.855Z,96164.63
2023-05-14T03:35:20.447Z,96166.88
2023-05-14T03:37:46.835Z,96158.84
2023-05-14T03:40:13.269Z,96171.28
2023-05-14T03:42:40.642Z,96168.31
2023-05-14T03:45:07.545Z,96167.53
2023-05-14T03:47:33.913Z,96167.25
2023-05-14T03:50:00.384Z,96174.22
2023-05-14T03:52:27.185Z,96175.03
2023-05-14T03:54:53.498Z,96171.31
2023-05-14T03:57:19.874Z,96169.81
2023-05-14T03:59:46.217Z,96164.75
2023-05-14T04:02:12.636Z,96168.25
2023-05-14T04:04:40.063Z,96166.53
2023-05-14T04:07:06.613Z,96161.94
2023-05-14T04:09:33.688Z,96168.63
2023-05-14T04:12:00.012Z,96166.72
2023-05-14T04:14:26.328Z,96169.41
2023-05-14T04:16:54.689Z,96159.28
2023-05-14T04:19:21.048Z,96159.28
2023-05-14T04:21:47.442Z,96158.34
2023-05-14T04:24:13.869Z,96160.25
2023-05-14T04:26:40.871Z,96170.25
2023-05-14T04:29:07.233Z,96160.66
2023-05-14T04:31:33.603Z,96170.78
2023-05-14T04:34:00.196Z,96166.00
2023-05-14T04:36:26.581Z,96169.75
2023-05-14T04:38:52.873Z,96167.59
2023-05-14T04:41:19.246Z,96167.31
2023-05-14T04:43:47.049Z,96173.19
2023-05-14T04:46:13.838Z,96179.88
2023-05-14T04:48:42.802Z,96188.44
2023-05-14T04:51:09.361Z,96181.22
2023-05-14T04:53:36.305Z,96180.28
2023-05-14T04:56:02.674Z,96179.19
2023-05-14T04:58:32.754Z,96175.59
2023-05-14T05:01:01.659Z,96184.41
2023-05-14T05:03:28.503Z,96187.47
2023-05-14T05:05:54.933Z,96188.41
2023-05-14T05:08:23.888Z,96191.06
2023-05-14T05:10:50.297Z,96186.00
2023-05-14T05:13:17.064Z,96187.06
2023-05-14T05:15:43.576Z,96186.28
2023-05-14T05:18:11.053Z,96194.13
2023-05-14T05:20:37.607Z,96187.59
2023-05-14T05:23:03.943Z,96190.25
2023-05-14T05:25:30.303Z,96196.97
2023-05-14T05:27:56.863Z,96197.75
2023-05-14T05:30:23.478Z,96196.13
2023-05-14T05:32:50.473Z,96197.50
2023-05-14T05:35:16.818Z,96200.19
2023-05-14T05:37:43.218Z,96202.84
2023-05-14T05:40:10.569Z,96194.69
2023-05-14T05:42:36.933Z,96194.56
2023-05-14T05:45:03.349Z,96200.06
2023-05-14T05:47:30.174Z,96195.88
2023-05-14T05:49:56.965Z,96200.44
2023-05-14T05:52:23.360Z,96188.41
2023-05-14T05:54:49.744Z,96188.69
2023-05-14T05:57:16.132Z,96190.94
2023-05-14T05:59:43.337Z,96192.16
2023-05-14T06:02:11.711Z,96192.72
2023-05-14T06:04:38.093Z,96190.84
2023-05-14T06:07:04.527Z,96195.41
2023-05-14T06:09:30.994Z,96192.31
2023-05-14T06:11:57.493Z,96188.44
2023-05-14T06:14:23.946Z,96191.66
2023-05-14T06:16:50.412Z,96191.38
2023-05-14T06:19:17.081Z,96192.31
2023-05-14T06:21:44.269Z,96199.78
2023-05-14T06:24:10.908Z,96190.31
2023-05-14T06:26:37.225Z,96194.84
2023-05-14T06:29:03.621Z,96199.66
2023-05-14T06:31:30.088Z,96193.50
2023-05-14T06:33:56.662Z,96191.09
2023-05-14T06:36:23.155Z,96194.72
2023-05-14T06:38:49.521Z,96194.47
2023-05-14T06:41:16.560Z,96183.75
2023-05-14T06:43:42.890Z,96180.28
2023-05-14T06:46:09.771Z,96180.84
2023-05-14T06:48:36.531Z,96179.50
2023-05-14T06:51:03.836Z,96183.88
2023-05-14T06:53:30.362Z,96181.75
2023-05-14T06:55:56.884Z,96179.38
2023-05-14T06:58:23.347Z,96175.91
2023-05-14T07:00:49.921Z,96180.16
2023-05-14T07:03:16.356Z,96181.75
2023-05-14T07:05:44.826Z,96175.47
2023-05-14T07:08:11.309Z,96175.28
2023-05-14T07:10:39.798Z,96177.56
2023-05-14T07:13:06.214Z,96172.50
2023-05-14T07:15:33.001Z,96177.44
2023-05-14T07:17:59.344Z,96170.84
2023-05-14T07:20:26.119Z,96168.28
2023-05-14T07:22:52.877Z,96165.78
2023-05-14T07:25:24.771Z,96176.06
2023-05-14T07:27:51.064Z,96167.94
2023-05-14T07:30:17.895Z,96173.72
2023-05-14T07:32:44.606Z,96173.53
2023-05-14T07:35:11.706Z,96172.06
2023-05-14T07:37:38.136Z,96166.34
2023-05-14T07:40:04.670Z,96165.28
2023-05-14T07:42:36.738Z,96169.03
2023-05-14T07:45:04.390Z,96160.09
2023-05-14T07:47:30.889Z,96162.25
2023-05-14T07:49:57.542Z,96164.50
2023-05-14T07:52:24.051Z,96164.75
2023-05-14T07:54:51.187Z,96156.59
2023-05-14T07:57:17.865Z,96165.38
2023-05-14T07:59:44.238Z,96167.00
2023-05-14T08:02:12.899Z,96159.00
2023-05-14T08:04:39.782Z,96162.38
2023-05-14T08:07:07.456Z,96160.78
2023-05-14T08:09:33.997Z,96160.34
2023-05-14T08:12:00.418Z,96167.00
2023-05-14T08:14:27.000Z,96161.25
2023-05-14T08:16:53.499Z,96163.69
2023-05-14T08:19:20.007Z,96153.63
2023-05-14T08:21:46.661Z,96150.16
2023-05-14T08:24:12.992Z,96161.53
2023-05-14T08:26:39.532Z,96152.47
2023-05-14T08:29:15.534Z,96164.34
2023-05-14T08:31:42.968Z,96160.47
2023-05-14T08:34:09.852Z,96161.66
2023-05-14T08:36:36.579Z,96161.66
2023-05-14T08:39:02.957Z,96163.84
2023-05-14T08:41:29.950Z,96158.47
2023-05-14T08:43:56.368Z,96149.88
2023-05-14T08:46:23.704Z,96155.59
2023-05-14T08:48:55.294Z,96154.06
2023-05-14T08:51:21.910Z,96147.00
2023-05-14T08:53:48.238Z,96149.13
2023-05-14T08:56:16.206Z,96141.06
2023-05-14T08:58:42.513Z,96140.78
2023-05-14T09:01:09.278Z,96136.34
2023-05-14T09:03:36.373Z,96135.81
2023-05-14T09:06:03.908Z,96130.34
2023-05-14T09:08:30.538Z,96131.84
2023-05-14T09:10:56.850Z,96127.09
2023-05-14T09:13:23.260Z,96127.22
2023-05-14T09:15:51.197Z,96129.03
2023-05-14T09:18:17.609Z,96126.94
2023-05-14T09:20:44.014Z,96130.63
2023-05-14T09:23:10.748Z,96116.97
2023-05-14T09:25:37.072Z,96115.19
2023-05-14T09:28:06.042Z,96114.47
2023-05-14T09:30:34.113Z,96104.31
2023-05-14T09:33:00.695Z,96107.00
2023-05-14T09:35:27.064Z,96113.06
2023-05-14T09:37:54.225Z,96107.28
2023-05-14T09:40:21.623Z,96118.34
2023-05-14T09:42:49.151Z,96111.41
2023-05-14T09:45:16.344Z,96103.16
2023-05-14T09:47:43.185Z,96109.16
2023-05-14T09:50:10.207Z,96108.78
2023-05-14T09:52:37.249Z,96101.34
2023-05-14T09:55:04.077Z,96101.00
2023-05-14T09:57:30.944Z,96092.81
2023-05-14T09:59:57.252Z,96094.69
2023-05-14T10:02:25.721Z,96097.97
2023-05-14T10:04:58.824Z,96096.28
2023-05-14T10:07:27.326Z,96105.66
2023-05-14T10:09:58.203Z,96095.59
2023-05-14T10:12:29.244Z,96096.81
2023-05-14T10:14:57.453Z,96093.69
2023-05-14T10:17:27.109Z,96097.50
2023-05-14T10:19:54.770Z,96096.63
2023-05-14T10:22:25.610Z,96098.13
2023-05-14T10:24:55.097Z,96088.75
2023-05-14T10:27:22.506Z,96098.25
2023-05-14T10:29:55.538Z,96097.88
2023-05-14T10:32:24.397Z,96090.94
2023-05-14T10:34:51.448Z,96086.00
2023-05-14T10:37:21.882Z,96080.00
2023-05-14T10:39:50.721Z,96084.59
2023-05-14T10:42:18.460Z,96089.81
2023-05-14T10:44:47.398Z,96082.72
2023-05-14T10:47:16.722Z,96092.06
2023-05-14T10:49:44.110Z,96080.50
2023-05-14T10:52:11.838Z,96088.34
2023-05-14T10:54:38.387Z,96080.91
2023-05-14T10:57:09.802Z,96075.56
2023-05-14T10:59:36.109Z,96080.97
2023-05-14T11:02:05.088Z,96072.63
2023-05-14T11:04:31.604Z,96078.38
2023-05-14T11:06:58.257Z,96064.97
2023-05-14T11:09:25.487Z,96063.81
2023-05-14T11:11:51.916Z,96068.09
2023-05-14T11:14:18.201Z,96071.56
2023-05-14T11:16:44.705Z,96072.38
2023-05-14T11:19:11.248Z,96074.25
2023-05-14T11:21:37.838Z,96077.81
2023-05-14T11:24:05.458Z,96073.41
2023-05-14T11:26:32.003Z,96082.44
2023-05-14T11:28:58.369Z,96070.03
2023-05-14T11:31:25.396Z,96078.78
2023-05-14T11:33:52.335Z,96077.19
2023-05-14T11:36:18.630Z,96087.44
2023-05-14T11:38:49.158Z,96079.75
2023-05-14T11:41:16.081Z,96078.28
2023-05-14T11:43:42.697Z,96083.66
2023-05-14T11:46:16.006Z,96083.13
2023-05-14T11:48:42.340Z,96076.94
2023-05-14T11:51:09.398Z,96078.47
2023-05-14T11:53:36.101Z,96079.69
2023-05-14T11:56:03.116Z,96083.03
2023-05-14T11:58:32.500Z,96081.88
2023-05-14T12:00:58.923Z,96081.53
2023-05-14T12:03:26.796Z,96082.19
2023-05-14T12:05:56.788Z,96072.38
2023-05-14T12:08:25.996Z,96073.38
2023-05-14T12:10:55.825Z,96067.56
2023-05-14T12:13:25.429Z,96067.13
2023-05-14T12:15:56.604Z,96066.47
2023-05-14T12:18:25.415Z,96069.44
2023-05-14T12:20:52.171Z,96062.69
2023-05-14T12:23:31.303Z,96064.25
2023-05-14T12:26:06.020Z,96056.22
2023-05-14T12:28:33.467Z,96063.22
2023-05-14T12:31:01.611Z,96057.69
2023-05-14T12:33:28.010Z,96061.47
2023-05-14T12:35:54.831Z,96060.28
2023-05-14T12:38:21.175Z,96058.63
2023-05-14T12:40:47.563Z,96046.66
2023-05-14T12:43:14.409Z,96057.91
2023-05-14T12:45:41.212Z,96051.44
2023-05-14T12:48:07.710Z,96056.00
2023-05-14T12:50:34.086Z,96059.22
2023-05-14T12:53:00.637Z,96057.59
2023-05-14T12:55:26.959Z,96055.66
2023-05-14T12:57:54.162Z,96060.09
2023-05-14T13:00:20.492Z,96060.72
2023-05-14T13:02:46.950Z,96058.63
2023-05-14T13:05:13.344Z,96056.50
2023-05-14T13:07:40.988Z,96050.53
2023-05-14T13:10:08.063Z,96053.75
2023-05-14T13:12:34.608Z,96047.78
2023-05-14T13:15:00.943Z,96035.03
2023-05-14T13:17:27.387Z,96034.25
2023-05-14T13:19:53.744Z,96034.38
2023-05-14T13:22:20.132Z,96026.97
2023-05-14T13:24:46.622Z,96024.69
2023-05-14T13:27:13.083Z,96012.19
2023-05-14T13:29:41.765Z,96021.47
2023-05-14T13:32:08.595Z,96006.06
2023-05-14T13:34:36.205Z,96012.16
2023-05-14T13:37:02.565Z,96007.22
2023-05-14T13:39:28.894Z,96001.50
2023-05-14T13:41:57.004Z,95998.94
2023-05-14T13:44:23.595Z,95987.97
2023-05-14T13:46:50.110Z,95992.13
2023-05-14T13:49:16.623Z,95988.00
2023-05-14T13:51:42.965Z,95991.72
2023-05-14T13:54:10.268Z,95997.84
2023-05-14T13:56:36.662Z,95993.69
2023-05-14T13:59:03.537Z,95996.69
2023-05-14T14:01:33.132Z,96009.34
2023-05-14T14:03:59.540Z,96015.53
2023-05-14T14:06:27.214Z,96014.91
2023-05-14T14:08:54.880Z,96013.03
2023-05-14T14:11:21.884Z,96015.25
2023-05-14T14:13:48.242Z,96019.31
2023-05-14T14:16:15.850Z,96021.47
2023-05-14T14:18:43.104Z,96027.91
2023-05-14T14:21:10.866Z,96025.69
2023-05-14T14:23:37.403Z,96028.56
2023-05-14T14:26:04.079Z,96032.53
2023-05-14T14:28:30.655Z,96026.66
2023-05-14T14:30:56.954Z,96029.25
2023-05-14T14:33:23.297Z,96030.72
2023-05-14T14:35:49.625Z,96029.69
2023-05-14T14:38:16.094Z,96034.50
2023-05-14T14:40:42.510Z,96034.22
2023-05-14T14:43:09.680Z,96030.91
2023-05-14T14:45:36.175Z,96031.88
2023-05-14T14:48:21.162Z,96036.00
2023-05-14T14:50:47.648Z,96038.78
2023-05-14T14:53:14.023Z,96041.34
2023-05-14T14:55:41.194Z,96043.84
2023-05-14T14:58:07.508Z,96045.06
2023-05-14T15:00:33.874Z,96050.53
2023-05-14T15:03:00.633Z,96053.28
2023-05-14T15:05:27.076Z,96046.38
2023-05-14T15:07:54.275Z,96054.41
2023-05-14T15:10:20.683Z,96065.00
2023-05-14T15:12:47.025Z,96062.41
2023-05-14T15:15:13.413Z,96063.91
2023-05-14T15:17:40.911Z,96063.13
2023-05-14T15:20:07.802Z,96063.19
2023-05-14T15:22:34.216Z,96061.03
2023-05-14T15:25:01.098Z,96065.13
2023-05-14T15:27:27.755Z,96063.56
2023-05-14T15:29:54.356Z,96059.19
2023-05-14T15:32:20.758Z,96059.94
2023-05-14T15:34:47.135Z,96064.34
2023-05-14T15:37:13.420Z,96055.78
2023-05-14T15:39:40.052Z,96058.19
2023-05-14T15:42:06.770Z,96050.50
2023-05-14T15:44:33.166Z,96066.94
2023-05-14T15:46:59.709Z,96067.97
2023-05-14T15:49:26.443Z,96072.66
2023-05-14T15:51:52.775Z,96067.88
2023-05-14T15:54:19.336Z,96070.44
2023-05-14T15:56:46.493Z,96072.44
2023-05-14T15:59:14.652Z,96067.00
2023-05-14T16:01:41.483Z,96064.94
2023-05-14T16:04:07.884Z,96060.03
2023-05-14T16:06:34.371Z,96063.44
2023-05-14T16:09:02.928Z,96051.81
2023-05-14T16:11:30.045Z,96062.56
2023-05-14T16:13:56.671Z,96051.28
2023-05-14T16:16:23.298Z,96057.78
2023-05-14T16:18:49.706Z,96062.34
2023-05-14T16:21:16.164Z,96069.72
2023-05-14T16:23:42.975Z,96075.16
2023-05-14T16:26:09.902Z,96075.53
2023-05-14T16:28:36.381Z,96079.66
2023-05-14T16:31:03.841Z,96081.97
2023-05-14T16:33:30.715Z,96083.34
2023-05-14T16:35:57.029Z,96086.19
2023-05-14T16:38:23.442Z,96083.44
2023-05-14T16:40:50.101Z,96078.78
2023-05-14T16:43:16.544Z,96083.63
2023-05-14T16:45:43.285Z,96086.97
2023-05-14T16:48:09.775Z,96088.84
2023-05-14T16:50:36.264Z,96097.25
2023-05-14T16:53:02.620Z,96090.94
2023-05-14T16:55:29.162Z,96090.31
2023-05-14T16:57:55.988Z,96102.63
2023-05-14T17:00:22.527Z,96090.63
2023-05-14T17:02:49.776Z,96106.56
2023-05-14T17:05:16.639Z,96096.78
2023-05-14T17:07:43.175Z,96103.44
2023-05-14T17:10:10.401Z,96103.97
2023-05-14T17:12:36.993Z,96103.03
2023-05-14T17:15:05.672Z,96116.53
2023-05-14T17:17:32.943Z,96112.41
2023-05-14T17:19:59.684Z,96115.63
2023-05-14T17:22:26.218Z,96107.06
2023-05-14T17:24:52.650Z,96117.47
2023-05-14T17:27:19.019Z,96113.59
2023-05-14T17:29:45.553Z,96115.44
2023-05-14T17:32:12.552Z,96115.19
2023-05-14T17:34:39.829Z,96118.16
2023-05-14T17:37:06.804Z,96115.38
2023-05-14T17:39:33.240Z,96111.06
2023-05-14T17:41:59.599Z,96114.69
2023-05-14T17:44:26.099Z,96117.34
2023-05-14T17:46:52.457Z,96117.63
2023-05-14T17:49:18.801Z,96116.84
2023-05-14T17:51:45.282Z,96122.41
2023-05-14T17:54:12.106Z,96123.88
2023-05-14T17:56:38.469Z,96129.63
2023-05-14T17:59:04.982Z,96130.16
2023-05-14T18:01:31.479Z,96129.34
2023-05-14T18:03:57.881Z,96136.56
2023-05-14T18:06:24.265Z,96130.56
2023-05-14T18:08:50.638Z,96131.09
2023-05-14T18:11:17.285Z,96141.41
2023-05-14T18:13:44.116Z,96147.94
2023-05-14T18:16:10.878Z,96144.88
2023-05-14T18:18:37.233Z,96149.78
2023-05-14T18:21:03.640Z,96154.88
2023-05-14T18:23:29.959Z,96147.53
2023-05-14T18:25:56.295Z,96152.22
2023-05-14T18:28:23.096Z,96158.22
2023-05-14T18:30:49.756Z,96164.50
2023-05-14T18:33:16.268Z,96156.38
2023-05-14T18:35:43.692Z,96163.31
2023-05-14T18:38:11.945Z,96161.59
2023-05-14T18:40:38.389Z,96159.56
2023-05-14T18:43:04.802Z,96162.91
2023-05-14T18:45:31.113Z,96154.47
2023-05-14T18:47:57.527Z,96164.13
2023-05-14T18:50:24.088Z,96168.53
2023-05-14T18:52:50.436Z,96171.59
2023-05-14T18:55:16.809Z,96169.31
2023-05-14T18:57:43.609Z,96170.53
2023-05-14T19:00:10.485Z,96163.59
2023-05-14T19:02:36.875Z,96171.06
2023-05-14T19:05:03.383Z,96173.75
2023-05-14T19:07:30.481Z,96167.72
2023-05-14T19:09:56.870Z,96176.13
2023-05-14T19:12:23.238Z,96170.78
2023-05-14T19:14:49.615Z,96174.94
2023-05-14T19:17:17.359Z,96182.28
2023-05-14T19:19:45.392Z,96186.41
2023-05-14T19:22:15.026Z,96185.13
2023-05-14T19:24:41.409Z,96185.75
2023-05-14T19:27:08.092Z,96189.75
2023-05-14T19:29:36.759Z,96192.03
2023-05-14T19:32:04.702Z,96193.38
2023-05-14T19:34:31.160Z,96188.72
2023-05-14T19:36:57.477Z,96190.56
2023-05-14T19:39:23.793Z,96196.94
2023-05-14T19:41:50.200Z,96196.16
2023-05-14T19:44:16.594Z,96195.78
2023-05-14T19:46:42.997Z,96200.84
2023-05-14T19:49:09.436Z,96198.56
2023-05-14T19:51:35.878Z,96195.88
2023-05-14T19:54:02.314Z,96197.25
2023-05-14T19:56:28.822Z,96197.47
2023-05-14T19:58:55.199Z,96205.06
2023-05-14T20:01:21.641Z,96205.19
2023-05-14T20:03:48.354Z,96214.53
2023-05-14T20:06:14.801Z,96206.25
2023-05-14T20:08:41.503Z,96205.47
2023-05-14T20:11:07.849Z,96205.19
2023-05-14T20:13:36.042Z,96213.06
2023-05-14T20:16:02.901Z,96215.13
2023-05-14T20:18:29.243Z,96200.44
2023-05-14T20:20:55.860Z,96204.44
2023-05-14T20:23:22.301Z,96205.41
2023-05-14T20:25:48.777Z,96210.06
2023-05-14T20:28:15.189Z,96213.38
2023-05-14T20:30:42.700Z,96216.19
2023-05-14T20:33:09.375Z,96209.88
2023-05-14T20:35:36.034Z,96201.72
2023-05-14T20:38:03.849Z,96199.84
2023-05-14T20:40:30.868Z,96203.34
2023-05-14T20:42:57.423Z,96198.25
2023-05-14T20:45:23.968Z,96196.66
2023-05-14T20:47:50.583Z,96205.03
2023-05-14T20:50:16.993Z,96205.94
2023-05-14T20:52:43.346Z,96210.22
2023-05-14T20:55:09.945Z,96209.69
2023-05-14T20:57:36.678Z,96201.97
2023-05-14T21:00:06.905Z,96204.34
2023-05-14T21:02:33.412Z,96200.84
2023-05-14T21:05:00.411Z,96203.59
2023-05-14T21:07:28.915Z,96208.88
2023-05-14T21:09:56.279Z,96209.66
2023-05-14T21:12:22.751Z,96212.56
2023-05-14T21:14:49.068Z,96210.72
2023-05-14T21:17:15.994Z,96205.66
2023-05-14T21:19:43.011Z,96201.94
2023-05-14T21:22:09.571Z,96196.84
2023-05-14T21:24:36.398Z,96199.28
2023-05-14T21:27:02.785Z,96196.50
2023-05-14T21:29:29.302Z,96189.44
2023-05-14T21:31:56.222Z,96187.97
2023-05-14T21:34:22.637Z,96183.97
2023-05-14T21:36:49.039Z,96185.03
2023-05-14T21:39:15.441Z,96181.41
2023-05-14T21:41:42.615Z,96186.88
2023-05-14T21:44:08.953Z,96187.00
2023-05-14T21:46:35.417Z,96186.22
2023-05-14T21:49:01.865Z,96180.09
2023-05-14T21:51:28.285Z,96184.38
2023-05-14T21:53:54.796Z,96182.47
2023-05-14T21:56:22.471Z,96180.69
2023-05-14T21:58:48.782Z,96185.53
2023-05-14T22:01:15.308Z,96180.97
2023-05-14T22:03:42.454Z,96181.75
2023-05-14T22:06:08.887Z,96190.50
2023-05-14T22:08:35.334Z,96180.06
2023-05-14T22:11:01.754Z,96182.31
2023-05-14T22:13:28.452Z,96180.72
2023-05-14T22:16:01.538Z,96172.75
2023-05-14T22:18:36.570Z,96173.13
2023-05-14T22:21:03.041Z,96171.69
2023-05-14T22:23:29.399Z,96174.09
2023-05-14T22:25:55.941Z,96164.50
2023-05-14T22:28:22.410Z,96169.53
2023-05-14T22:30:48.739Z,96163.91
2023-05-14T22:33:15.042Z,96167.63
2023-05-14T22:35:41.550Z,96163.47
2023-05-14T22:38:08.103Z,96161.75
2023-05-14T22:40:34.402Z,96161.09
2023-05-14T22:43:00.734Z,96162.94
2023-05-14T22:45:27.224Z,96157.38
2023-05-14T22:47:54.217Z,96148.72
2023-05-14T22:50:20.681Z,96163.38
2023-05-14T22:52:47.096Z,96160.22
2023-05-14T22:55:13.463Z,96156.47
2023-05-14T22:57:39.977Z,96157.81
2023-05-14T23:00:06.976Z,96148.75
2023-05-14T23:02:33.514Z,96159.75
2023-05-14T23:04:59.995Z,96153.63
2023-05-14T23:07:26.306Z,96156.28
2023-05-14T23:09:52.574Z,96142.28
2023-05-14T23:12:19.028Z,96155.16
2023-05-14T23:14:45.960Z,96141.59
2023-05-14T23:17:13.059Z,96152.91
2023-05-14T23:19:39.455Z,96151.22
2023-05-14T23:22:05.831Z,96140.25
2023-05-14T23:24:32.174Z,96147.88
2023-05-14T23:26:58.558Z,96141.88
2023-05-14T23:29:24.912Z,96143.19
2023-05-14T23:31:51.315Z,96147.16
2023-05-14T23:34:22.019Z,96137.41
2023-05-14T23:36:48.415Z,96136.94
2023-05-14T23:39:14.822Z,96136.81
2023-05-14T23:41:42.176Z,96125.06
2023-05-14T23:44:08.498Z,96129.94
2023-05-14T23:46:34.830Z,96128.53
2023-05-14T23:49:01.169Z,96127.28
2023-05-14T23:51:27.550Z,96121.81
2023-05-14T23:53:58.170Z,96123.84
2023-05-14T23:56:25.085Z,96119.44
2023-05-14T23:58:51.786Z,96124.28
